Time;durP1;ratioP1;P1;durP2;ratioP2;P2;SDS_P1;SDS_P2;PMS_P1;PMS_P2;Temp;Humidity;BMP_temperature;BMP_pressure;BME280_temperature;BME280_humidity;BME280_pressure;Samples;Min_cycle;Max_cycle;Signal;HPM_P1;HPM_P2
2021/01/30 00:01:19;;;;;;;18.12;10.88;;;;;;;-2.01;72.83;98753.98;1761872;80;21157;-46
2021/01/30 00:03:46;;;;;;;19.15;11.25;;;;;;;-2.00;72.89;98758.72;1785714;79;21097;-48
2021/01/30 00:06:14;;;;;;;19.95;11.88;;;;;;;-1.99;72.87;98762.52;1809541;77;21093;-48
2021/01/30 00:08:42;;;;;;;17.62;11.33;;;;;;;-1.98;72.79;98766.77;1802278;78;21352;-48
2021/01/30 00:11:12;;;;;;;19.60;11.38;;;;;;;-1.96;72.94;98768.00;1800812;78;21002;-48
2021/01/30 00:13:42;;;;;;;20.23;12.03;;;;;;;-1.93;72.90;98775.61;1801835;78;21643;-47
2021/01/30 00:16:11;;;;;;;19.20;10.72;;;;;;;-1.93;72.76;98775.61;1795465;78;21108;-47
2021/01/30 00:18:39;;;;;;;25.02;11.60;;;;;;;-1.94;72.70;98770.87;1775383;78;21185;-47
2021/01/30 00:21:06;;;;;;;19.45;10.85;;;;;;;-1.92;72.67;98774.69;1801885;78;21383;-48
2021/01/30 00:23:34;;;;;;;20.88;11.28;;;;;;;-1.94;72.64;98773.94;1799313;79;21124;-47
2021/01/30 00:26:02;;;;;;;21.50;10.93;;;;;;;-1.91;72.56;98774.20;1798531;79;20967;-47
2021/01/30 00:28:29;;;;;;;23.00;11.30;;;;;;;-1.93;72.49;98780.31;1784744;78;21700;-47
2021/01/30 00:30:57;;;;;;;21.10;11.15;;;;;;;-1.93;72.50;98780.80;1787579;78;21500;-47
2021/01/30 00:33:25;;;;;;;23.57;11.15;;;;;;;-1.91;72.58;98781.98;1784412;78;21364;-47
2021/01/30 00:35:55;;;;;;;17.75;10.38;;;;;;;-1.90;72.52;98787.10;1787823;78;20998;-47
2021/01/30 00:38:22;;;;;;;20.20;11.08;;;;;;;-1.94;72.23;98787.72;1783778;78;21145;-47
2021/01/30 00:40:50;;;;;;;22.37;11.22;;;;;;;-1.98;72.15;98788.81;1780287;78;22132;-46
2021/01/30 00:43:17;;;;;;;17.77;10.68;;;;;;;-2.01;72.26;98787.69;1791772;78;21629;-47
2021/01/30 00:45:47;;;;;;;20.88;11.43;;;;;;;-2.02;72.23;98795.09;1788280;78;21330;-47
2021/01/30 00:48:15;;;;;;;17.35;10.55;;;;;;;-2.05;72.18;98791.86;1785769;78;21034;-47
2021/01/30 00:50:43;;;;;;;18.17;10.20;;;;;;;-2.09;72.27;98792.02;1779421;78;21214;-48
2021/01/30 00:53:11;;;;;;;20.05;10.32;;;;;;;-2.08;72.29;98800.62;1786619;78;21141;-47
2021/01/30 00:55:41;;;;;;;18.73;10.35;;;;;;;-2.08;72.39;98794.14;1787407;78;21106;-48
2021/01/30 00:58:09;;;;;;;19.37;11.00;;;;;;;-2.08;72.43;98798.88;1767304;78;21375;-47
2021/01/30 01:00:38;;;;;;;16.60;9.13;;;;;;;-2.08;72.38;98801.92;1785478;78;21203;-47
2021/01/30 01:03:10;;;;;;;18.40;10.28;;;;;;;-2.08;72.36;98804.06;1780489;78;21137;-48
2021/01/30 01:05:48;;;;;;;18.45;10.10;;;;;;;-2.01;72.27;98804.55;1807268;76;28200;-47
2021/01/30 01:08:15;;;;;;;21.93;10.45;;;;;;;-2.07;71.90;98798.41;1770980;79;22460;-48
2021/01/30 01:10:45;;;;;;;19.35;9.83;;;;;;;-2.12;71.76;98800.45;1735614;80;21062;-47
2021/01/30 01:13:13;;;;;;;20.00;9.80;;;;;;;-2.16;71.78;98808.02;1718263;81;21745;-47
2021/01/30 01:15:41;;;;;;;15.03;8.93;;;;;;;-2.21;71.67;98811.33;1717791;81;21062;-47
2021/01/30 01:18:09;;;;;;;17.35;9.68;;;;;;;-2.26;71.73;98814.16;1718041;81;21193;-47
2021/01/30 01:20:37;;;;;;;18.42;9.75;;;;;;;-2.29;71.72;98816.91;1728577;81;21015;-47
2021/01/30 01:23:04;;;;;;;19.55;10.63;;;;;;;-2.33;71.69;98814.11;1722872;81;21257;-48
2021/01/30 01:25:32;;;;;;;23.95;10.53;;;;;;;-2.40;71.78;98820.92;1722974;81;21592;-47
2021/01/30 01:28:00;;;;;;;21.20;10.95;;;;;;;-2.42;71.91;98824.53;1723961;81;21031;-48
2021/01/30 01:30:28;;;;;;;17.15;10.05;;;;;;;-2.48;71.97;98820.97;1722945;81;21145;-47
2021/01/30 01:32:57;;;;;;;20.80;10.98;;;;;;;-2.52;72.15;98821.58;1723381;81;21968;-48
2021/01/30 01:35:29;;;;;;;17.73;9.95;;;;;;;-2.55;72.20;98827.78;1724012;81;22617;-48
2021/01/30 01:37:57;;;;;;;20.45;9.88;;;;;;;-2.59;72.22;98829.30;1724854;81;21151;-48
2021/01/30 01:40:33;;;;;;;23.85;9.93;;;;;;;-2.64;72.40;98833.45;1724978;81;20978;-48
2021/01/30 01:43:08;;;;;;;19.55;10.58;;;;;;;-2.69;72.44;98835.00;1723167;81;21157;-46
2021/01/30 01:45:37;;;;;;;18.73;9.93;;;;;;;-2.76;72.44;98839.27;1722697;81;21125;-47
2021/01/30 01:48:15;;;;;;;17.92;10.30;;;;;;;-2.84;72.60;98831.92;1723177;81;22039;-48
2021/01/30 01:50:45;;;;;;;18.67;9.93;;;;;;;-2.88;72.61;98839.47;1722979;81;21165;-48
2021/01/30 01:53:21;;;;;;;17.15;9.58;;;;;;;-2.94;72.56;98839.78;1723111;81;21006;-48
2021/01/30 01:55:53;;;;;;;18.37;9.80;;;;;;;-3.04;72.54;98844.14;1722801;81;21011;-47
2021/01/30 01:58:20;;;;;;;16.85;10.10;;;;;;;-3.13;72.60;98840.25;1725365;81;21428;-48
2021/01/30 02:00:49;;;;;;;16.02;9.65;;;;;;;-3.23;72.64;98839.07;1724390;81;22550;-48
2021/01/30 02:03:18;;;;;;;17.92;10.88;;;;;;;-3.32;72.89;98840.83;1725908;81;21014;-46
2021/01/30 02:05:45;;;;;;;21.00;11.12;;;;;;;-3.38;72.97;98839.84;1690782;82;21604;-47
2021/01/30 02:08:20;;;;;;;18.32;10.28;;;;;;;-3.41;73.07;98841.66;1682562;83;21160;-47
2021/01/30 02:10:50;;;;;;;17.20;10.13;;;;;;;-3.46;73.02;98841.05;1733465;80;21924;-47
2021/01/30 02:13:29;;;;;;;18.80;9.73;;;;;;;-3.53;72.84;98839.69;1746273;81;21712;-47
2021/01/30 02:16:06;;;;;;;19.57;10.50;;;;;;;-3.59;72.92;98834.34;1755322;81;21496;-47
2021/01/30 02:18:59;;;;;;;19.12;10.28;;;;;;;-3.63;73.03;98842.34;1740385;81;21761;-47
2021/01/30 02:22:01;;;;;;;19.30;9.25;;;;;;;-3.67;73.11;98844.69;1735424;81;20948;-47
2021/01/30 02:24:52;;;;;;;;;;;;;;;-3.76;73.17;98839.05;1754400;81;21892;-47
2021/01/30 02:27:16;;;;;;;21.05;11.08;;;;;;;-3.79;73.17;98845.66;1749689;81;21446;-47
2021/01/30 02:29:56;;;;;;;18.45;10.30;;;;;;;-3.81;73.28;98851.36;1738957;81;21180;-47
2021/01/30 02:32:59;;;;;;;19.27;11.18;;;;;;;-3.80;73.08;98847.05;1736217;81;21011;-47
2021/01/30 02:35:44;;;;;;;18.23;10.30;;;;;;;-3.79;72.92;98845.66;1742820;81;20983;-47
2021/01/30 02:38:16;;;;;;;21.50;11.53;;;;;;;-3.80;72.48;98842.70;1732605;81;21145;-47
2021/01/30 02:40:46;;;;;;;22.37;10.75;;;;;;;-3.87;72.45;98846.05;1743242;81;21412;-47
2021/01/30 02:43:19;;;;;;;20.35;10.88;;;;;;;-3.90;72.37;98847.92;1736545;81;21022;-47
2021/01/30 02:45:57;;;;;;;22.35;10.95;;;;;;;-3.93;72.13;98849.36;1733682;81;21932;-47
2021/01/30 02:48:33;;;;;;;22.52;10.85;;;;;;;-3.96;71.79;98843.90;1713564;81;21598;-47
2021/01/30 02:51:03;;;;;;;22.87;12.00;;;;;;;-4.00;71.79;98838.02;1743037;81;20999;-47
2021/01/30 02:53:35;;;;;;;22.30;12.10;;;;;;;-4.02;71.70;98836.44;1758376;81;21779;-47
2021/01/30 02:56:04;;;;;;;23.07;13.50;;;;;;;-4.02;71.77;98836.44;1758863;81;21166;-48
2021/01/30 02:58:45;;;;;;;25.17;13.60;;;;;;;-4.06;71.64;98831.84;1757503;81;21015;-48
2021/01/30 03:01:13;;;;;;;29.48;14.33;;;;;;;-4.07;71.56;98827.59;1724198;81;21119;-47
2021/01/30 03:03:41;;;;;;;25.20;13.78;;;;;;;-4.13;71.48;98824.00;1753817;81;21916;-47
2021/01/30 03:06:16;;;;;;;21.45;12.68;;;;;;;-4.12;71.79;98819.22;1763332;80;21119;-47
2021/01/30 03:09:03;;;;;;;23.75;12.70;;;;;;;-4.08;71.76;98814.76;1733493;80;21014;-47
2021/01/30 03:11:38;;;;;;;21.10;11.83;;;;;;;-4.11;71.51;98818.78;1758221;80;21011;-48
2021/01/30 03:14:17;;;;;;;21.70;11.50;;;;;;;-4.17;71.69;98828.49;1742521;80;21102;-47
2021/01/30 03:16:44;;;;;;;19.73;11.00;;;;;;;-4.23;71.34;98827.92;1752189;80;21146;-47
2021/01/30 03:19:22;;;;;;;22.25;11.38;;;;;;;-4.25;71.25;98820.73;1763029;80;21383;-47
2021/01/30 03:22:04;;;;;;;20.02;11.68;;;;;;;-4.27;70.96;98816.09;1757040;80;21035;-47
2021/01/30 03:24:31;;;;;;;22.62;11.78;;;;;;;-4.32;70.73;98821.02;1745162;80;21015;-47
2021/01/30 03:26:59;;;;;;;21.90;12.03;;;;;;;-4.37;70.87;98820.39;1742418;80;21094;-47
2021/01/30 03:29:27;;;;;;;20.05;12.10;;;;;;;-4.42;70.87;98825.37;1763188;80;21727;-47
2021/01/30 03:31:55;;;;;;;23.27;12.43;;;;;;;-4.49;71.11;98820.95;1761010;80;22108;-47
2021/01/30 03:34:22;;;;;;;23.30;10.88;;;;;;;-4.54;70.84;98817.74;1763542;80;21173;-47
2021/01/30 03:36:50;;;;;;;22.85;11.85;;;;;;;-4.61;70.71;98820.59;1753133;80;21121;-47
2021/01/30 03:39:18;;;;;;;19.52;11.53;;;;;;;-4.65;70.81;98815.19;1763396;80;21559;-47
2021/01/30 03:41:46;;;;;;;20.77;11.43;;;;;;;-4.78;71.00;98812.77;1739562;80;20987;-47
2021/01/30 03:44:14;;;;;;;22.60;12.00;;;;;;;-4.89;71.35;98821.01;1757247;80;21396;-47
2021/01/30 03:46:43;;;;;;;19.77;10.72;;;;;;;-5.02;71.59;98825.03;1744797;80;21747;-47
2021/01/30 03:49:11;;;;;;;21.45;12.63;;;;;;;-5.14;71.43;98832.83;1746417;80;21137;-47
2021/01/30 03:51:39;;;;;;;19.05;11.70;;;;;;;-5.28;71.74;98837.30;1762090;80;20991;-47
2021/01/30 03:54:06;;;;;;;24.45;12.33;;;;;;;-5.37;71.85;98837.25;1759857;80;21090;-47
2021/01/30 03:56:34;;;;;;;21.70;11.25;;;;;;;-5.40;72.16;98839.95;1763761;80;21357;-47
2021/01/30 03:59:01;;;;;;;22.05;12.05;;;;;;;-5.36;72.42;98837.63;1758434;80;21015;-47
2021/01/30 04:01:35;;;;;;;21.10;11.28;;;;;;;-5.37;71.95;98823.89;1749813;80;20987;-47
2021/01/30 04:04:05;;;;;;;19.15;12.05;;;;;;;-5.42;71.90;98827.58;1762392;80;21126;-47
2021/01/30 04:06:32;;;;;;;23.27;12.18;;;;;;;-5.39;72.38;98823.11;1761387;79;20983;-47
2021/01/30 04:09:01;;;;;;;23.73;12.00;;;;;;;-5.34;72.69;98824.22;1758893;81;22194;-47
2021/01/30 04:11:30;;;;;;;22.80;11.97;;;;;;;-5.29;72.52;98827.42;1758695;81;20995;-47
2021/01/30 04:13:58;;;;;;;21.33;12.58;;;;;;;-5.28;72.40;98821.82;1751393;81;22059;-47
2021/01/30 04:16:27;;;;;;;24.63;13.43;;;;;;;-5.25;72.45;98822.52;1758991;81;21153;-47
2021/01/30 04:18:55;;;;;;;25.15;13.35;;;;;;;-5.21;72.55;98827.11;1758806;80;20944;-47
2021/01/30 04:21:22;;;;;;;23.20;13.15;;;;;;;-5.23;72.69;98826.33;1739069;81;22020;-47
2021/01/30 04:23:50;;;;;;;24.67;13.15;;;;;;;-5.14;73.24;98826.38;1738020;81;21046;-47
2021/01/30 04:26:18;;;;;;;20.65;12.15;;;;;;;-5.02;73.50;98827.61;1743733;81;21715;-48
2021/01/30 04:28:50;;;;;;;24.35;12.03;;;;;;;-4.93;73.31;98830.61;1758572;81;21094;-47
2021/01/30 04:31:20;;;;;;;21.20;12.40;;;;;;;-4.89;72.82;98823.59;1745351;81;21638;-48
2021/01/30 04:33:49;;;;;;;22.35;13.05;;;;;;;-4.84;72.83;98820.35;1742426;80;22065;-48
2021/01/30 04:36:18;;;;;;;25.85;13.28;;;;;;;-4.76;72.70;98807.09;1683070;83;21015;-48
2021/01/30 04:38:46;;;;;;;25.00;13.28;;;;;;;-4.73;72.49;98800.50;1743862;81;21148;-47
2021/01/30 04:41:52;;;;;;;24.63;12.78;;;;;;;-4.68;72.60;98806.29;1751070;81;22169;-48
2021/01/30 04:44:32;;;;;;;25.72;13.93;;;;;;;-4.65;72.40;98800.14;1744525;81;21003;-48
2021/01/30 04:47:37;;;;;;;23.92;14.30;;;;;;;-4.56;72.60;98794.55;1766441;77;28246;-48
2021/01/30 04:50:29;;;;;;;25.37;13.58;;;;;;;-4.57;72.42;98804.50;1740839;80;21074;-47
2021/01/30 04:53:21;;;;;;;26.15;14.05;;;;;;;-4.54;72.48;98821.14;1736958;80;21946;-47
2021/01/30 04:56:24;;;;;;;26.27;13.83;;;;;;;-4.54;71.90;98823.73;1734784;80;26525;-47
2021/01/30 04:59:12;;;;;;;26.00;14.45;;;;;;;-4.63;71.50;98827.58;1709149;82;21728;-47
2021/01/30 05:02:03;;;;;;;23.77;13.83;;;;;;;-4.68;71.39;98829.97;1737509;80;22310;-47
2021/01/30 05:04:35;;;;;;;30.88;15.40;;;;;;;-4.75;71.51;98833.28;1706512;82;21201;-47
2021/01/30 05:07:33;;;;;;;27.60;15.10;;;;;;;-4.76;71.74;98825.16;1704954;82;22688;-49
2021/01/30 05:10:27;;;;;;;26.82;15.05;;;;;;;-4.80;71.88;98824.47;1705375;82;21078;-47
2021/01/30 05:13:10;;;;;;;29.52;15.43;;;;;;;-4.75;72.24;98818.63;1711257;82;21019;-48
2021/01/30 05:15:47;;;;;;;27.77;15.43;;;;;;;-4.73;72.29;98819.86;1667735;84;21038;-46
2021/01/30 05:18:30;;;;;;;30.00;16.35;;;;;;;-4.72;72.38;98815.08;1712925;82;20977;-46
2021/01/30 05:21:14;;;;;;;28.70;15.75;;;;;;;-4.72;72.32;98821.53;1716161;82;21164;-54
2021/01/30 05:23:45;;;;;;;27.75;15.13;;;;;;;-4.68;72.87;98824.80;1714254;81;21159;-47
2021/01/30 05:26:42;;;;;;;26.10;15.13;;;;;;;-4.58;73.30;98827.36;1713297;81;21138;-48
2021/01/30 05:30:01;;;;;;;28.45;15.78;;;;;;;-4.47;73.27;98825.59;1714295;81;21143;-47
2021/01/30 05:33:18;;;;;;;32.45;16.07;;;;;;;-4.44;72.49;98824.16;1693566;81;21127;-47
2021/01/30 05:35:51;;;;;;;33.90;17.92;;;;;;;-4.37;72.49;98829.43;1694636;82;22890;-47
2021/01/30 05:38:41;;;;;;;32.05;16.48;;;;;;;-4.32;72.72;98839.09;1698739;81;21018;-47
2021/01/30 05:41:32;;;;;;;28.02;16.62;;;;;;;-4.28;72.75;98840.25;1699696;81;22310;-47
2021/01/30 05:44:23;;;;;;;33.45;19.05;;;;;;;-4.32;72.78;98840.39;1697093;81;20964;-47
2021/01/30 05:46:52;;;;;;;29.52;15.63;;;;;;;-4.39;72.89;98841.58;1687086;81;21018;-47
2021/01/30 05:49:28;;;;;;;31.97;16.15;;;;;;;-4.48;72.67;98838.12;1679672;83;22205;-47
2021/01/30 05:52:07;;;;;;;35.80;17.52;;;;;;;-4.52;72.47;98839.98;1676122;82;22131;-47
2021/01/30 05:54:34;;;;;;;33.48;18.15;;;;;;;-4.52;72.45;98837.88;1673631;83;21941;-47
2021/01/30 05:57:03;;;;;;;36.40;17.87;;;;;;;-4.48;72.64;98838.94;1675810;83;21100;-46
2021/01/30 05:59:31;;;;;;;39.05;19.52;;;;;;;-4.53;72.42;98840.89;1721717;79;21142;-48
2021/01/30 06:02:20;;;;;;;34.08;18.30;;;;;;;-4.68;72.26;98845.45;1726678;79;21415;-48
2021/01/30 06:04:48;;;;;;;34.73;18.35;;;;;;;-4.86;73.09;98840.23;1720392;81;21741;-48
2021/01/30 06:07:34;;;;;;;33.28;16.97;;;;;;;-4.74;73.99;98843.53;1726391;81;21126;-48
2021/01/30 06:10:30;;;;;;;34.65;17.80;;;;;;;-4.41;75.67;98841.25;1727555;81;21645;-47
2021/01/30 06:13:17;;;;;;;30.62;16.42;;;;;;;-3.95;76.74;98851.19;1722438;81;20996;-47
2021/01/30 06:15:50;;;;;;;27.67;15.50;;;;;;;-3.48;76.98;98849.34;1721775;81;21634;-47
2021/01/30 06:18:32;;;;;;;31.33;15.75;;;;;;;-3.06;76.99;98850.30;1720628;81;21557;-47
2021/01/30 06:21:09;;;;;;;28.83;16.00;;;;;;;-2.84;75.72;98853.93;1720819;81;21649;-47
2021/01/30 06:23:37;;;;;;;29.00;14.55;;;;;;;-2.75;74.72;98856.48;1718618;81;21122;-48
2021/01/30 06:26:19;;;;;;;27.90;15.10;;;;;;;-2.71;73.76;98851.52;1711075;81;21761;-48
2021/01/30 06:29:01;;;;;;;27.90;15.90;;;;;;;-2.70;73.08;98857.08;1721002;81;21382;-49
2021/01/30 06:31:39;;;;;;;26.73;15.25;;;;;;;-2.63;72.65;98857.58;1720766;80;21671;-48
2021/01/30 06:34:25;;;;;;;29.90;15.43;;;;;;;-2.55;72.56;98860.61;1722718;81;20999;-48
2021/01/30 06:36:52;;;;;;;30.97;17.25;;;;;;;-2.52;71.80;98861.30;1720834;81;22264;-48
2021/01/30 06:39:34;;;;;;;30.97;17.35;;;;;;;-2.59;71.31;98866.87;1722723;81;21598;-48
2021/01/30 06:42:16;;;;;;;37.30;17.57;;;;;;;-2.69;71.02;98872.56;1721230;81;22605;-48
2021/01/30 06:44:50;;;;;;;35.50;17.77;;;;;;;-2.78;71.16;98870.45;1864157;75;22768;-47
2021/01/30 06:47:19;;;;;;;45.00;22.32;;;;;;;-2.90;71.33;98866.72;1803786;77;21197;-47
2021/01/30 06:49:53;;;;;;;53.87;25.95;;;;;;;-2.93;71.35;98860.88;1825023;77;21148;-47
2021/01/30 06:52:30;;;;;;;51.60;25.60;;;;;;;-2.99;71.30;98855.53;1822272;77;22590;-47
2021/01/30 06:55:09;;;;;;;50.88;25.60;;;;;;;-3.06;71.45;98858.05;1822637;77;21038;-48
2021/01/30 06:58:01;;;;;;;47.08;24.65;;;;;;;-3.15;71.34;98855.02;1830173;77;22674;-47
2021/01/30 07:00:35;;;;;;;49.00;25.37;;;;;;;-3.22;71.72;98851.09;1790410;77;21728;-48
2021/01/30 07:03:09;;;;;;;55.35;26.37;;;;;;;-3.24;72.06;98849.05;1786573;77;21732;-48
2021/01/30 07:06:10;;;;;;;56.10;27.55;;;;;;;-3.16;72.19;98844.28;1759958;80;21006;-48
2021/01/30 07:09:18;;;;;;;51.85;26.93;;;;;;;-3.16;71.67;98840.41;1741841;81;21023;-48
2021/01/30 07:11:57;;;;;;;59.48;27.75;;;;;;;-3.19;71.86;98844.91;1760205;80;21973;-48
2021/01/30 07:14:50;;;;;;;43.40;23.20;;;;;;;-3.21;71.87;98842.42;1755268;80;21133;-47
2021/01/30 07:17:57;;;;;;;49.50;24.77;;;;;;;-3.28;71.36;98843.64;1740660;81;21490;-47
2021/01/30 07:20:59;;;;;;;58.05;26.62;;;;;;;-3.56;71.81;98854.06;1743775;79;21050;-48
2021/01/30 07:24:01;;;;;;;54.15;26.95;;;;;;;-3.71;72.41;98849.19;1735888;81;21939;-47
2021/01/30 07:26:37;;;;;;;;;;;;;;;-3.79;72.90;98849.55;1721577;81;21125;-48
2021/01/30 07:29:11;;;;;;;52.35;26.82;;;;;;;-3.75;73.36;98847.19;1742819;81;20279;-47
2021/01/30 07:31:48;;;;;;;62.78;32.08;;;;;;;-3.78;73.43;98849.10;1741069;80;21349;-47
2021/01/30 07:34:31;;;;;;;53.78;27.07;;;;;;;-3.71;73.92;98851.77;1740447;80;21590;-47
2021/01/30 07:37:05;;;;;;;59.13;26.65;;;;;;;-3.64;73.55;98850.54;1738486;80;21619;-48
2021/01/30 07:39:57;;;;;;;66.15;30.72;;;;;;;-3.65;73.67;98841.58;1772631;79;21146;-48
2021/01/30 07:42:45;;;;;;;55.33;27.87;;;;;;;-3.64;73.72;98844.55;1741392;81;21125;-48
2021/01/30 07:45:26;;;;;;;62.20;30.95;;;;;;;-3.53;74.05;98850.47;1755915;79;21696;-48
2021/01/30 07:48:10;;;;;;;61.92;30.10;;;;;;;-3.42;73.76;98858.10;1754230;79;21039;-48
2021/01/30 07:50:39;;;;;;;;;;;;;;;-3.37;73.35;98856.56;1755965;79;20999;-48
2021/01/30 07:53:15;;;;;;;62.58;30.05;;;;;;;-3.30;73.51;98854.05;1744179;79;21369;-48
2021/01/30 07:56:18;;;;;;;52.43;25.75;;;;;;;-3.21;73.32;98855.36;1740551;79;21011;-47
2021/01/30 07:59:06;;;;;;;57.53;29.65;;;;;;;-3.17;73.10;98855.55;1736360;81;21286;-47
2021/01/30 08:02:04;;;;;;;49.15;25.08;;;;;;;-3.26;72.80;98851.69;1744656;79;21156;-47
2021/01/30 08:05:01;;;;;;;57.98;29.90;;;;;;;-3.32;72.81;98849.41;1740954;81;20995;-47
2021/01/30 08:07:58;;;;;;;65.42;31.82;;;;;;;-3.38;73.39;98851.48;1742817;81;21034;-48
2021/01/30 08:10:40;;;;;;;88.45;40.98;;;;;;;-3.30;73.62;98851.47;1747149;81;21003;-47
2021/01/30 08:13:53;;;;;;;63.58;31.77;;;;;;;-3.24;73.62;98849.05;1741257;81;22091;-48
2021/01/30 08:17:04;;;;;;;70.78;34.70;;;;;;;-3.17;73.72;98849.08;1744133;79;21168;-47
2021/01/30 08:19:43;;;;;;;68.60;32.08;;;;;;;-2.99;73.78;98845.18;1732560;81;21026;-48
2021/01/30 08:22:23;;;;;;;69.40;34.80;;;;;;;-2.91;73.12;98850.80;1740147;81;22124;-48
2021/01/30 08:24:59;;;;;;;53.48;28.80;;;;;;;-2.86;72.86;98847.52;1740683;79;22650;-48
2021/01/30 08:27:37;;;;;;;59.45;29.25;;;;;;;-2.84;72.57;98854.75;1740494;81;22744;-48
2021/01/30 08:30:15;;;;;;;55.23;28.67;;;;;;;-2.90;72.73;98868.48;1743276;81;21594;-48
2021/01/30 08:33:01;;;;;;;53.98;28.57;;;;;;;-2.94;72.72;98862.61;1747078;81;21018;-48
2021/01/30 08:35:36;;;;;;;65.80;34.43;;;;;;;-3.08;72.54;98863.77;1737215;79;22087;-48
2021/01/30 08:38:11;;;;;;;105.50;53.13;;;;;;;-3.22;73.05;98865.77;1746111;79;21134;-48
2021/01/30 08:41:11;;;;;;;58.23;29.45;;;;;;;-3.22;73.59;98860.16;1737260;81;21351;-48
2021/01/30 08:43:46;;;;;;;70.97;33.88;;;;;;;-3.15;73.63;98861.48;1725944;81;22043;-47
2021/01/30 08:46:33;;;;;;;72.10;34.63;;;;;;;-3.08;73.50;98859.45;1714377;82;21166;-48
2021/01/30 08:49:15;;;;;;;73.33;32.95;;;;;;;-3.11;73.36;98859.13;1707350;82;21119;-48
2021/01/30 08:51:45;;;;;;;;;;;;;;;-3.07;73.47;98855.09;1722769;81;21123;-48
2021/01/30 08:54:35;;;;;;;81.25;33.85;;;;;;;-3.02;73.46;98856.98;1725107;81;22054;-48
2021/01/30 08:57:03;;;;;;;72.97;30.00;;;;;;;-2.99;73.18;98846.47;1771188;79;21957;-48
2021/01/30 08:59:50;;;;;;;71.92;28.65;;;;;;;-3.01;73.03;98848.30;1770599;79;20983;-48
2021/01/30 09:02:35;;;;;;;67.22;31.15;;;;;;;-3.00;73.01;98852.13;1772229;80;21162;-48
2021/01/30 09:05:26;;;;;;;70.25;32.33;;;;;;;-2.99;73.01;98840.00;1772879;80;22134;-48
2021/01/30 09:07:59;;;;;;;68.72;32.95;;;;;;;-2.90;73.18;98841.30;1730597;81;22170;-48
2021/01/30 09:10:39;;;;;;;68.70;33.02;;;;;;;-2.84;73.08;98839.69;1691931;82;21832;-48
2021/01/30 09:13:18;;;;;;;65.00;31.85;;;;;;;-2.79;72.63;98840.28;1715449;80;21031;-48
2021/01/30 09:15:53;;;;;;;59.60;30.88;;;;;;;-2.77;72.73;98836.30;1718257;82;21016;-48
2021/01/30 09:18:38;;;;;;;59.18;28.38;;;;;;;-2.69;72.91;98831.12;1716129;81;21008;-47
2021/01/30 09:21:24;;;;;;;57.45;28.77;;;;;;;-2.60;72.77;98836.25;1719715;81;23127;-47
2021/01/30 09:24:33;;;;;;;47.88;25.52;;;;;;;-2.58;72.18;98833.13;1724884;81;21146;-48
2021/01/30 09:27:07;;;;;;;45.05;21.97;;;;;;;-2.67;72.28;98834.91;1743548;81;21665;-48
2021/01/30 09:29:44;;;;;;;43.63;22.37;;;;;;;-2.74;72.87;98834.41;1743909;81;21138;-48
2021/01/30 09:32:15;;;;;;;45.80;23.42;;;;;;;-2.77;72.63;98837.59;1737394;81;21128;-48
2021/01/30 09:34:59;;;;;;;40.17;20.50;;;;;;;-2.87;73.04;98830.31;1762454;78;21027;-48
2021/01/30 09:37:44;;;;;;;44.88;21.73;;;;;;;-2.91;73.44;98830.56;1776706;78;21137;-48
2021/01/30 09:40:28;;;;;;;36.20;20.12;;;;;;;-2.98;73.44;98823.55;1768841;78;22045;-48
2021/01/30 09:43:04;;;;;;;27.80;16.73;;;;;;;-3.08;73.94;98822.35;1785682;78;22005;-47
2021/01/30 09:45:43;;;;;;;29.42;16.82;;;;;;;-3.06;74.77;98819.23;1801112;77;29580;-47
2021/01/30 09:48:11;;;;;;;28.45;16.95;;;;;;;-3.10;75.19;98825.04;1735374;77;21199;-48
2021/01/30 09:50:51;;;;;;;35.65;18.52;;;;;;;-3.09;75.45;98812.91;1776625;77;23076;-49
2021/01/30 09:53:27;;;;;;;32.75;19.10;;;;;;;-3.12;75.81;98819.92;1784644;78;21027;-48
2021/01/30 09:56:08;;;;;;;33.08;18.02;;;;;;;-3.11;76.48;98819.01;1787848;78;21026;-48
2021/01/30 09:58:36;;;;;;;29.12;15.70;;;;;;;-3.08;77.01;98813.30;1789850;78;20936;-48
2021/01/30 10:01:08;;;;;;;34.45;18.12;;;;;;;-3.12;77.42;98811.34;1787570;78;22120;-48
2021/01/30 10:03:40;;;;;;;31.93;16.93;;;;;;;-3.23;77.92;98809.31;1753602;81;21401;-48
2021/01/30 10:06:16;;;;;;;;;;;;;;;-3.29;78.53;98806.56;1791760;78;20975;-48
2021/01/30 10:08:44;;;;;;;30.05;16.62;;;;;;;-3.33;79.07;98802.45;1760623;79;20182;-48
2021/01/30 10:11:17;;;;;;;29.57;15.20;;;;;;;-3.42;79.66;98798.59;1778307;79;22143;-48
2021/01/30 10:13:50;;;;;;;33.45;17.00;;;;;;;-3.44;80.06;98792.66;1774963;79;21958;-47
2021/01/30 10:16:20;;;;;;;31.55;16.80;;;;;;;-3.39;80.33;98791.59;1788244;79;21546;-48
2021/01/30 10:18:53;;;;;;;28.25;15.63;;;;;;;-3.39;80.30;98791.59;1773990;80;21152;-49
2021/01/30 10:21:33;;;;;;;34.43;17.12;;;;;;;-3.48;80.59;98788.56;1755338;81;21022;-48
2021/01/30 10:24:17;;;;;;;37.55;18.62;;;;;;;-3.49;81.03;98784.30;1770181;79;21156;-47
2021/01/30 10:26:45;;;;;;;35.85;19.37;;;;;;;-3.50;81.56;98782.63;1811410;78;21134;-47
2021/01/30 10:29:17;;;;;;;33.55;17.17;;;;;;;-3.47;81.75;98773.42;1786888;79;21367;-47
2021/01/30 10:31:57;;;;;;;33.35;17.90;;;;;;;-3.42;81.80;98768.84;1809649;78;22055;-48
2021/01/30 10:34:47;;;;;;;38.67;20.32;;;;;;;-3.35;81.86;98762.89;1787145;79;20994;-48
2021/01/30 10:37:37;;;;;;;35.85;16.85;;;;;;;-3.31;81.80;98759.23;1811402;78;20979;-47
2021/01/30 10:40:10;;;;;;;37.08;20.30;;;;;;;-3.35;81.55;98753.02;1787601;79;20975;-47
2021/01/30 10:42:38;;;;;;;35.88;20.15;;;;;;;-3.51;81.90;98753.80;1811431;78;21396;-47
2021/01/30 10:45:20;;;;;;;41.30;21.12;;;;;;;-3.56;82.24;98751.42;1778705;79;21171;-48
2021/01/30 10:48:07;;;;;;;34.35;19.70;;;;;;;-3.51;82.49;98743.89;1765261;80;20983;-48
2021/01/30 10:50:38;;;;;;;36.73;19.85;;;;;;;-3.49;82.53;98736.45;1774656;80;21633;-48
2021/01/30 10:53:35;;;;;;;38.28;20.57;;;;;;;-3.50;82.34;98734.77;1774203;80;21145;-48
2021/01/30 10:56:19;;;;;;;41.15;20.77;;;;;;;-3.54;82.34;98738.43;1779205;80;23117;-48
2021/01/30 10:58:50;;;;;;;40.10;18.32;;;;;;;-3.55;82.74;98741.93;1751054;80;22032;-48
2021/01/30 11:01:25;;;;;;;35.20;16.90;;;;;;;-3.56;82.70;98725.56;1762888;80;21593;-47
2021/01/30 11:03:55;;;;;;;41.68;20.02;;;;;;;-3.56;82.87;98721.68;1748429;81;21033;-47
2021/01/30 11:06:38;;;;;;;35.63;20.05;;;;;;;-3.49;82.97;98723.95;1748128;81;21001;-48
2021/01/30 11:09:23;;;;;;;39.10;21.90;;;;;;;-3.48;83.02;98721.30;1748300;81;21203;-48
2021/01/30 11:12:24;;;;;;;45.65;21.45;;;;;;;-3.43;83.11;98719.76;1748208;81;22061;-48
2021/01/30 11:14:51;;;;;;;37.55;20.48;;;;;;;-3.38;82.82;98713.07;1748130;81;22158;-47
2021/01/30 11:17:26;;;;;;;37.53;18.92;;;;;;;-3.37;82.37;98710.86;1748035;81;21127;-48
2021/01/30 11:19:54;;;;;;;36.68;16.80;;;;;;;-3.51;82.11;98708.97;1747836;81;21101;-48
2021/01/30 11:22:26;;;;;;;34.73;20.08;;;;;;;-3.62;82.59;98700.48;1722750;81;22734;-48
2021/01/30 11:25:10;;;;;;;35.85;19.95;;;;;;;-3.62;82.96;98704.36;1747855;81;21194;-48
2021/01/30 11:27:45;;;;;;;37.45;19.37;;;;;;;-3.54;83.17;98698.34;1763732;80;21158;-49
2021/01/30 11:30:23;;;;;;;37.45;21.42;;;;;;;-3.49;83.12;98689.89;1764239;80;20996;-48
2021/01/30 11:33:03;;;;;;;37.73;22.97;;;;;;;-3.50;82.95;98675.72;1762453;80;21186;-47
2021/01/30 11:35:36;;;;;;;39.80;21.37;;;;;;;-3.46;83.18;98673.35;1764209;80;21394;-47
2021/01/30 11:38:13;;;;;;;35.03;19.85;;;;;;;-3.37;83.32;98663.00;1763781;80;21217;-48
2021/01/30 11:40:40;;;;;;;34.63;18.52;;;;;;;-3.32;83.21;98654.53;1764169;80;21036;-47
2021/01/30 11:43:08;;;;;;;34.53;18.77;;;;;;;-3.30;83.02;98653.52;1763775;80;20968;-48
2021/01/30 11:45:36;;;;;;;32.63;18.40;;;;;;;-3.26;82.81;98642.56;1757689;80;21801;-48
2021/01/30 11:48:05;;;;;;;31.73;17.35;;;;;;;-3.27;82.69;98639.13;1755346;81;22065;-48
2021/01/30 11:50:33;;;;;;;38.40;20.40;;;;;;;-3.24;82.64;98627.80;1755010;81;21018;-47
2021/01/30 11:53:17;;;;;;;35.50;19.17;;;;;;;-3.23;82.55;98624.73;1755035;81;21003;-48
2021/01/30 11:55:45;;;;;;;38.55;21.45;;;;;;;-3.23;82.67;98625.58;1755179;81;21148;-48
2021/01/30 11:58:13;;;;;;;36.10;20.40;;;;;;;-3.24;82.52;98615.30;1754940;81;20991;-47
2021/01/30 12:00:41;;;;;;;35.70;20.12;;;;;;;-3.27;82.42;98610.66;1761851;80;21393;-47
2021/01/30 12:03:25;;;;;;;32.15;17.60;;;;;;;-3.28;82.20;98606.88;1754848;81;21984;-47
2021/01/30 12:05:54;;;;;;;34.70;19.92;;;;;;;-3.28;82.29;98612.88;1754856;81;21504;-47